createdAt,value
2023-02-01T00:02:53.813Z,100693.25
2023-02-01T00:05:57.713Z,100705.41
2023-02-01T00:08:59.010Z,100707.06
2023-02-01T00:12:03.334Z,100691.84
2023-02-01T00:15:06.636Z,100689.38
2023-02-01T00:18:08.971Z,100685.16
2023-02-01T00:21:12.278Z,100687.25
2023-02-01T00:24:13.681Z,100681.66
2023-02-01T00:27:19.146Z,100677.19
2023-02-01T00:30:22.204Z,100663.84
2023-02-01T00:33:25.198Z,100680.28
2023-02-01T00:36:27.779Z,100685.16
2023-02-01T00:39:29.320Z,100682.56
2023-02-01T00:42:33.061Z,100673.00
2023-02-01T00:45:35.603Z,100691.84
2023-02-01T00:48:38.001Z,100697.66
2023-02-01T00:51:40.575Z,100697.53
2023-02-01T00:54:43.114Z,100703.97
2023-02-01T00:57:44.413Z,100701.91
2023-02-01T01:00:48.009Z,100703.13
2023-02-01T01:03:51.778Z,100705.88
2023-02-01T01:06:54.479Z,100706.72
2023-02-01T01:09:57.218Z,100697.53
2023-02-01T01:12:58.830Z,100702.09
2023-02-01T01:16:04.083Z,100694.75
2023-02-01T01:19:06.183Z,100692.72
2023-02-01T01:22:08.727Z,100682.75
2023-02-01T01:25:10.011Z,100689.66
2023-02-01T01:28:12.583Z,100679.31
2023-02-01T01:31:16.223Z,100663.69
2023-02-01T01:34:19.506Z,100672.22
2023-02-01T01:37:22.111Z,100656.13
2023-02-01T01:40:23.698Z,100670.19
2023-02-01T01:43:26.783Z,100666.22
2023-02-01T01:46:31.168Z,100669.91
2023-02-01T01:49:33.219Z,100673.44
2023-02-01T01:52:36.897Z,100658.81
2023-02-01T01:55:42.167Z,100664.41
2023-02-01T01:58:45.128Z,100670.94
2023-02-01T02:01:48.922Z,100667.16
2023-02-01T02:04:51.229Z,100673.81
2023-02-01T02:07:58.796Z,100680.28
2023-02-01T02:11:01.060Z,100675.72
2023-02-01T02:14:05.671Z,100682.16
2023-02-01T02:17:23.675Z,100687.00
2023-02-01T02:20:52.727Z,100679.69
2023-02-01T02:24:26.756Z,100661.41
2023-02-01T02:27:41.315Z,100667.34
2023-02-01T02:31:01.799Z,100669.84
2023-02-01T02:34:13.663Z,100673.19
2023-02-01T02:40:50.845Z,100664.13
2023-02-01T02:44:19.094Z,100654.09
2023-02-01T02:47:26.506Z,100652.03
2023-02-01T02:50:52.495Z,100650.38
2023-02-01T02:54:32.043Z,100653.59
2023-02-01T02:57:57.730Z,100657.31
2023-02-01T03:01:17.779Z,100652.53
2023-02-01T03:04:21.560Z,100652.25
2023-02-01T03:11:17.305Z,100630.50
2023-02-01T03:14:22.859Z,100631.13
2023-02-01T03:17:33.721Z,100624.41
2023-02-01T03:20:38.448Z,100631.56
2023-02-01T03:23:43.116Z,100627.41
2023-02-01T03:26:50.548Z,100619.84
2023-02-01T03:30:00.861Z,100615.66
2023-02-01T03:33:07.597Z,100602.88
2023-02-01T03:36:20.728Z,100592.94
2023-02-01T03:39:30.335Z,100598.31
2023-02-01T03:42:40.121Z,100593.72
2023-02-01T03:45:47.124Z,100597.31
2023-02-01T03:48:50.595Z,100590.00
2023-02-01T03:51:54.113Z,100591.00
2023-02-01T03:54:57.602Z,100591.09
2023-02-01T03:58:06.489Z,100592.94
2023-02-01T04:01:08.006Z,100598.84
2023-02-01T04:04:21.273Z,100593.25
2023-02-01T04:07:22.536Z,100599.69
2023-02-01T04:10:26.114Z,100599.38
2023-02-01T04:13:28.682Z,100589.78
2023-02-01T04:16:30.064Z,100599.59
2023-02-01T04:19:32.649Z,100601.06
2023-02-01T04:22:35.204Z,100598.88
2023-02-01T04:25:37.168Z,100594.47
2023-02-01T04:28:39.676Z,100593.22
2023-02-01T04:31:41.410Z,100584.66
2023-02-01T04:34:44.101Z,100585.22
2023-02-01T04:37:46.737Z,100590.03
2023-02-01T04:40:49.643Z,100588.91
2023-02-01T04:43:52.306Z,100584.94
2023-02-01T04:46:54.123Z,100584.34
2023-02-01T04:49:56.659Z,100574.59
2023-02-01T04:52:57.976Z,100577.31
2023-02-01T04:56:00.073Z,100569.38
2023-02-01T04:59:03.852Z,100565.00
2023-02-01T05:02:05.181Z,100553.75
2023-02-01T05:05:07.124Z,100554.34
2023-02-01T05:08:08.476Z,100533.91
2023-02-01T05:11:30.575Z,100552.56
2023-02-01T05:14:31.601Z,100544.03
2023-02-01T05:17:32.907Z,100547.94
2023-02-01T05:20:34.255Z,100549.00
2023-02-01T05:23:55.853Z,100543.66
2023-02-01T05:26:57.884Z,100547.34
2023-02-01T05:30:00.425Z,100537.16
2023-02-01T05:33:02.441Z,100526.75
2023-02-01T05:36:06.998Z,100536.16
2023-02-01T05:39:08.478Z,100524.25
2023-02-01T05:42:11.723Z,100523.19
2023-02-01T05:45:13.057Z,100512.09
2023-02-01T05:48:14.758Z,100517.50
2023-02-01T05:54:37.034Z,100504.72
2023-02-01T05:57:39.020Z,100511.94
2023-02-01T06:00:40.760Z,100506.09
2023-02-01T06:03:42.090Z,100500.94
2023-02-01T06:06:43.784Z,100508.28
2023-02-01T06:09:45.121Z,100511.94
2023-02-01T06:12:47.251Z,100513.00
2023-02-01T06:15:48.681Z,100507.31
2023-02-01T06:18:50.103Z,100508.97
2023-02-01T06:21:51.658Z,100498.09
2023-02-01T06:24:52.975Z,100504.53
2023-02-01T06:27:56.227Z,100500.38
2023-02-01T06:30:59.337Z,100497.34
2023-02-01T06:34:01.044Z,100487.00
2023-02-01T06:37:03.635Z,100488.91
2023-02-01T06:40:06.058Z,100491.44
2023-02-01T06:43:09.481Z,100484.28
2023-02-01T06:46:13.534Z,100472.97
2023-02-01T06:49:14.879Z,100467.44
2023-02-01T06:52:16.233Z,100465.91
2023-02-01T06:55:17.574Z,100467.31
2023-02-01T06:58:19.680Z,100459.59
2023-02-01T07:01:22.320Z,100461.25
2023-02-01T07:04:23.650Z,100461.53
2023-02-01T07:10:45.810Z,100454.97
2023-02-01T07:13:48.103Z,100457.13
2023-02-01T07:16:50.762Z,100455.03
2023-02-01T07:19:52.119Z,100457.47
2023-02-01T07:22:56.454Z,100457.75
2023-02-01T07:25:59.298Z,100448.78
2023-02-01T07:29:02.637Z,100433.22
2023-02-01T07:32:04.218Z,100432.09
2023-02-01T07:35:06.363Z,100435.78
2023-02-01T07:38:08.962Z,100421.94
2023-02-01T07:41:11.291Z,100437.78
2023-02-01T07:44:14.530Z,100439.25
2023-02-01T07:47:17.092Z,100448.03
2023-02-01T07:50:18.455Z,100450.75
2023-02-01T07:53:21.020Z,100450.59
2023-02-01T07:56:23.055Z,100450.28
2023-02-01T07:59:25.157Z,100438.19
2023-02-01T08:02:26.521Z,100437.34
2023-02-01T08:05:28.557Z,100436.13
2023-02-01T08:08:29.926Z,100442.59
2023-02-01T08:11:32.177Z,100448.56
2023-02-01T08:14:34.227Z,100444.41
2023-02-01T08:17:35.659Z,100447.59
2023-02-01T08:20:40.109Z,100445.69
2023-02-01T08:23:42.750Z,100451.59
2023-02-01T08:26:45.430Z,100447.25
2023-02-01T08:29:47.450Z,100455.06
2023-02-01T08:32:49.051Z,100462.88
2023-02-01T08:35:50.822Z,100466.94
2023-02-01T08:38:53.520Z,100469.84
2023-02-01T08:42:09.447Z,100469.47
2023-02-01T08:45:11.990Z,100475.63
2023-02-01T08:48:13.838Z,100470.78
2023-02-01T08:51:18.517Z,100468.59
2023-02-01T08:54:21.832Z,100473.41
2023-02-01T08:57:24.760Z,100470.97
2023-02-01T09:00:26.970Z,100472.19
2023-02-01T09:03:28.378Z,100471.00
2023-02-01T09:06:31.503Z,100479.59
2023-02-01T09:09:32.868Z,100483.88
2023-02-01T09:12:35.013Z,100484.00
2023-02-01T09:15:38.038Z,100482.47
2023-02-01T09:18:50.444Z,100486.91
2023-02-01T09:25:19.713Z,100483.72
2023-02-01T09:28:21.344Z,100494.88
2023-02-01T09:31:23.924Z,100505.09
2023-02-01T09:34:25.286Z,100513.34
2023-02-01T09:37:28.522Z,100510.16
2023-02-01T09:40:29.882Z,100509.22
2023-02-01T09:43:42.725Z,100510.44
2023-02-01T09:46:47.391Z,100521.09
2023-02-01T09:49:56.661Z,100510.16
2023-02-01T09:53:03.597Z,100515.47
2023-02-01T09:59:37.481Z,100525.63
2023-02-01T10:02:41.844Z,100525.00
2023-02-01T10:05:58.042Z,100528.03
2023-02-01T10:09:16.394Z,100521.28
2023-02-01T10:12:42.721Z,100539.09
2023-02-01T10:15:55.437Z,100536.81
2023-02-01T10:19:18.293Z,100543.34
2023-02-01T10:22:59.970Z,100550.00
2023-02-01T10:26:01.123Z,100545.41
2023-02-01T10:29:06.100Z,100541.16
2023-02-01T10:32:16.002Z,100531.78
2023-02-01T10:38:43.473Z,100555.03
2023-02-01T10:41:45.189Z,100539.38
2023-02-01T10:44:48.369Z,100543.63
2023-02-01T10:47:53.150Z,100539.50
2023-02-01T10:51:00.716Z,100534.75
2023-02-01T10:54:09.304Z,100536.41
2023-02-01T10:57:19.902Z,100535.34
2023-02-01T11:00:22.700Z,100523.09
2023-02-01T11:03:38.106Z,100519.09
2023-02-01T11:06:42.158Z,100516.91
2023-02-01T11:09:51.452Z,100522.56
2023-02-01T11:12:55.920Z,100519.09
2023-02-01T11:15:57.562Z,100511.53
2023-02-01T11:19:00.722Z,100509.88
2023-02-01T11:22:04.866Z,100514.56
2023-02-01T11:25:10.957Z,100503.53
2023-02-01T11:28:13.002Z,100484.13
2023-02-01T11:31:15.186Z,100491.41
2023-02-01T11:34:20.528Z,100482.66
2023-02-01T11:37:27.237Z,100468.91
2023-02-01T11:40:34.539Z,100471.84
2023-02-01T11:43:37.200Z,100471.16
2023-02-01T11:46:38.640Z,100468.94
2023-02-01T11:49:40.255Z,100455.47
2023-02-01T11:52:59.038Z,100458.22
2023-02-01T11:56:14.011Z,100448.72
2023-02-01T11:59:33.031Z,100435.28
2023-02-01T12:03:02.165Z,100439.78
2023-02-01T12:13:11.321Z,100428.09
2023-02-01T12:16:24.407Z,100421.03
2023-02-01T12:19:42.684Z,100422.09
2023-02-01T12:22:57.620Z,100427.75
2023-02-01T12:26:14.502Z,100422.09
2023-02-01T12:29:28.068Z,100419.72
2023-02-01T12:32:52.103Z,100410.47
2023-02-01T12:36:08.435Z,100396.81
2023-02-01T12:39:20.162Z,100400.03
2023-02-01T12:42:26.726Z,100390.81
2023-02-01T12:45:35.275Z,100380.75
2023-02-01T12:48:43.930Z,100370.56
2023-02-01T12:51:49.103Z,100362.50
2023-02-01T12:54:58.982Z,100362.13
2023-02-01T12:58:15.185Z,100350.78
2023-02-01T13:01:23.348Z,100363.88
2023-02-01T13:04:32.704Z,100391.25
2023-02-01T13:07:39.739Z,100403.72
2023-02-01T13:10:44.431Z,100403.59
2023-02-01T13:13:53.295Z,100411.63
2023-02-01T13:17:00.817Z,100403.59
2023-02-01T13:20:07.877Z,100404.53
2023-02-01T13:23:15.588Z,100406.78
2023-02-01T13:26:19.392Z,100396.69
2023-02-01T13:29:26.491Z,100391.38
2023-02-01T13:33:53.885Z,100378.91
2023-02-01T13:36:56.882Z,100369.19
2023-02-01T13:40:18.804Z,100368.28
2023-02-01T13:43:25.341Z,100361.25
2023-02-01T13:46:29.217Z,100359.25
2023-02-01T13:49:34.067Z,100353.78
2023-02-01T13:52:41.729Z,100348.13
2023-02-01T13:55:45.442Z,100352.38
2023-02-01T13:58:49.803Z,100345.38
2023-02-01T14:01:53.058Z,100336.59
2023-02-01T14:04:55.075Z,100339.34
2023-02-01T14:11:44.145Z,100338.81
2023-02-01T14:14:48.296Z,100343.56
2023-02-01T14:17:50.289Z,100322.72
2023-02-01T14:21:22.896Z,100309.22
2023-02-01T14:24:28.363Z,100315.75
2023-02-01T14:27:35.705Z,100301.06
2023-02-01T14:30:38.859Z,100296.78
2023-02-01T14:33:43.418Z,100290.19
2023-02-01T14:36:52.465Z,100286.84
2023-02-01T14:39:57.813Z,100272.06
2023-02-01T14:42:59.306Z,100273.97
2023-02-01T14:46:01.941Z,100270.28
2023-02-01T14:49:03.401Z,100265.06
2023-02-01T14:52:14.858Z,100258.78
2023-02-01T14:55:19.615Z,100253.09
2023-02-01T14:58:33.956Z,100262.91
2023-02-01T15:01:39.236Z,100268.03
2023-02-01T15:04:43.806Z,100267.44
2023-02-01T15:07:47.082Z,100273.03
2023-02-01T15:10:50.969Z,100263.19
2023-02-01T15:13:56.040Z,100278.44
2023-02-01T15:16:57.525Z,100273.16
2023-02-01T15:20:02.961Z,100270.44
2023-02-01T15:23:18.682Z,100275.53
2023-02-01T15:26:27.258Z,100275.00
2023-02-01T15:29:33.842Z,100280.75
2023-02-01T15:32:38.457Z,100281.78
2023-02-01T15:35:43.683Z,100276.56
2023-02-01T15:38:45.646Z,100289.72
2023-02-01T15:41:50.984Z,100298.13
2023-02-01T15:44:52.320Z,100303.97
2023-02-01T15:47:55.558Z,100316.25
2023-02-01T15:50:57.069Z,100325.00
2023-02-01T15:54:02.181Z,100347.91
2023-02-01T15:57:05.492Z,100338.34
2023-02-01T16:03:42.754Z,100333.91
2023-02-01T16:06:50.317Z,100326.53
2023-02-01T16:09:54.937Z,100324.69
2023-02-01T16:13:01.548Z,100321.41
2023-02-01T16:16:07.996Z,100312.03
2023-02-01T16:19:09.291Z,100311.59
2023-02-01T16:22:11.859Z,100317.16
2023-02-01T16:25:13.896Z,100326.56
2023-02-01T16:28:16.478Z,100335.25
2023-02-01T16:31:22.106Z,100342.16
2023-02-01T16:34:24.705Z,100339.59
2023-02-01T16:37:28.203Z,100346.59
2023-02-01T16:40:30.140Z,100348.34
2023-02-01T16:43:31.447Z,100367.16
2023-02-01T16:46:37.456Z,100368.66
2023-02-01T16:49:42.955Z,100380.13
2023-02-01T16:52:45.006Z,100375.00
2023-02-01T16:55:50.874Z,100378.47
2023-02-01T16:58:54.513Z,100374.75
2023-02-01T17:01:57.064Z,100372.97
2023-02-01T17:04:59.776Z,100374.47
2023-02-01T17:08:05.099Z,100390.50
2023-02-01T17:11:08.807Z,100384.91
2023-02-01T17:14:17.874Z,100388.75
2023-02-01T17:17:29.038Z,100371.28
2023-02-01T17:20:39.233Z,100379.63
2023-02-01T17:23:41.082Z,100381.28
2023-02-01T17:26:43.863Z,100377.69
2023-02-01T17:29:46.381Z,100381.81
2023-02-01T17:32:48.997Z,100386.41
2023-02-01T17:35:50.695Z,100400.25
2023-02-01T17:39:04.815Z,100390.31
2023-02-01T17:45:39.834Z,100405.91
2023-02-01T17:48:43.261Z,100400.97
2023-02-01T17:51:44.555Z,100409.56
2023-02-01T17:54:50.915Z,100411.03
2023-02-01T17:57:52.920Z,100405.03
2023-02-01T18:00:55.498Z,100415.56
2023-02-01T18:03:56.802Z,100408.97
2023-02-01T18:06:59.488Z,100403.25
2023-02-01T18:10:01.288Z,100429.19
2023-02-01T18:13:04.841Z,100423.16
2023-02-01T18:19:27.712Z,100426.22
2023-02-01T18:22:31.836Z,100428.72
2023-02-01T18:25:36.345Z,100419.13
2023-02-01T18:28:38.790Z,100417.22
2023-02-01T18:31:45.747Z,100418.19
2023-02-01T18:34:47.219Z,100423.31
2023-02-01T18:37:49.439Z,100429.78
2023-02-01T18:40:53.220Z,100439.81
2023-02-01T18:43:55.211Z,100430.34
2023-02-01T18:46:56.510Z,100437.34
2023-02-01T18:53:22.259Z,100425.56
2023-02-01T18:56:23.591Z,100432.47
2023-02-01T18:59:25.714Z,100430.06
2023-02-01T19:02:27.395Z,100427.34
2023-02-01T19:05:30.231Z,100432.13
2023-02-01T19:08:32.108Z,100439.53
2023-02-01T19:11:33.429Z,100438.44
2023-02-01T19:14:35.363Z,100430.25
2023-02-01T19:17:38.183Z,100440.50
2023-02-01T19:20:44.164Z,100441.81
2023-02-01T19:23:46.860Z,100449.78
2023-02-01T19:26:49.461Z,100440.41
2023-02-01T19:29:51.903Z,100446.97
2023-02-01T19:32:53.173Z,100441.09
2023-02-01T19:35:58.619Z,100443.38
2023-02-01T19:38:59.922Z,100450.22
2023-02-01T19:42:04.230Z,100453.72
2023-02-01T19:45:08.007Z,100457.72
2023-02-01T19:48:12.314Z,100454.78
2023-02-01T19:51:14.890Z,100452.81
2023-02-01T19:54:16.529Z,100461.75
2023-02-01T19:57:19.092Z,100455.31
2023-02-01T20:03:42.179Z,100455.13
2023-02-01T20:06:49.469Z,100455.13
2023-02-01T20:09:50.832Z,100456.81
2023-02-01T20:12:53.463Z,100458.94
2023-02-01T20:15:58.827Z,100454.94
2023-02-01T20:19:00.132Z,100457.09
2023-02-01T20:22:01.418Z,100461.81
2023-02-01T20:25:04.877Z,100474.34
2023-02-01T20:28:09.364Z,100471.50
2023-02-01T20:31:12.681Z,100466.72
2023-02-01T20:34:14.496Z,100470.06
2023-02-01T20:37:17.120Z,100476.50
2023-02-01T20:40:18.710Z,100471.47
2023-02-01T20:43:20.415Z,100475.00
2023-02-01T20:46:24.166Z,100465.16
2023-02-01T20:49:26.715Z,100481.66
2023-02-01T20:52:28.032Z,100468.06
2023-02-01T20:55:32.013Z,100468.47
2023-02-01T20:58:33.473Z,100471.13
2023-02-01T21:01:38.178Z,100473.38
2023-02-01T21:04:40.388Z,100459.53
2023-02-01T21:07:43.225Z,100459.72
2023-02-01T21:10:54.931Z,100446.16
2023-02-01T21:13:58.730Z,100452.41
2023-02-01T21:17:01.018Z,100454.34
2023-02-01T21:20:03.985Z,100451.50
2023-02-01T21:23:05.683Z,100465.75
2023-02-01T21:26:09.307Z,100461.25
2023-02-01T21:29:12.400Z,100468.84
2023-02-01T21:32:15.641Z,100471.09
2023-02-01T21:35:17.291Z,100471.00
2023-02-01T21:38:19.893Z,100476.47
2023-02-01T21:41:41.406Z,100473.03
2023-02-01T21:44:45.384Z,100471.38
2023-02-01T21:47:48.954Z,100474.72
2023-02-01T21:50:50.955Z,100474.94
2023-02-01T21:53:53.452Z,100462.56
2023-02-01T21:56:54.760Z,100471.28
2023-02-01T21:59:59.246Z,100469.19
2023-02-01T22:03:02.457Z,100474.34
2023-02-01T22:06:05.286Z,100470.03
2023-02-01T22:09:07.062Z,100472.09
2023-02-01T22:15:32.831Z,100475.47
2023-02-01T22:18:36.122Z,100482.53
2023-02-01T22:21:38.588Z,100486.53
2023-02-01T22:24:41.138Z,100477.34
2023-02-01T22:28:31.049Z,100484.69
2023-02-01T22:31:06.153Z,100474.06
2023-02-01T22:34:10.589Z,100474.44
2023-02-01T22:37:12.274Z,100486.88
2023-02-01T22:40:15.319Z,100469.66
2023-02-01T22:43:16.596Z,100468.38
2023-02-01T22:46:20.859Z,100482.06
2023-02-01T22:49:22.876Z,100469.53
2023-02-01T22:52:25.477Z,100461.31
2023-02-01T22:55:28.039Z,100464.59
2023-02-01T22:58:29.715Z,100451.06
2023-02-01T23:01:32.336Z,100454.34
2023-02-01T23:04:34.283Z,100461.09
2023-02-01T23:07:36.903Z,100455.88
2023-02-01T23:10:38.260Z,100457.72
2023-02-01T23:13:40.878Z,100457.06
2023-02-01T23:16:44.217Z,100444.28
2023-02-01T23:19:48.377Z,100446.81
2023-02-01T23:29:31.924Z,100443.97
2023-02-01T23:32:35.715Z,100443.00
2023-02-01T23:35:39.147Z,100428.47
2023-02-01T23:38:41.143Z,100426.50
2023-02-01T23:41:43.725Z,100423.16
2023-02-01T23:44:45.010Z,100427.84
2023-02-01T23:47:47.783Z,100412.63
2023-02-01T23:50:51.071Z,100403.56
2023-02-01T23:53:53.133Z,100397.22
2023-02-01T23:56:57.727Z,100409.22
